createdAt,value
2022-11-29T00:03:06.061Z,83.17
2022-11-29T00:08:09.621Z,83.47
2022-11-29T00:13:13.050Z,83.98
2022-11-29T00:18:16.513Z,83.56
2022-11-29T00:23:19.820Z,83.59
2022-11-29T00:28:23.224Z,83.58
2022-11-29T00:33:27.134Z,83.82
2022-11-29T00:38:30.520Z,84.05
2022-11-29T00:43:34.369Z,84.06
2022-11-29T00:48:37.713Z,84.16
2022-11-29T00:53:41.133Z,84.33
2022-11-29T00:58:44.884Z,84.19
2022-11-29T01:03:48.753Z,84.11
2022-11-29T01:08:51.927Z,84.25
2022-11-29T01:13:58.301Z,84.11
2022-11-29T01:19:01.935Z,84.25
2022-11-29T01:24:05.653Z,84.21
2022-11-29T01:29:13.138Z,84.51
2022-11-29T01:34:16.681Z,84.28
2022-11-29T01:39:20.119Z,84.51
2022-11-29T01:44:23.174Z,84.87
2022-11-29T01:49:33.842Z,84.69
2022-11-29T01:54:44.627Z,84.72
2022-11-29T01:59:52.645Z,84.84
2022-11-29T02:04:58.565Z,84.69
2022-11-29T02:10:03.358Z,84.65
2022-11-29T02:15:18.853Z,84.54
2022-11-29T02:21:04.425Z,85.11
2022-11-29T02:26:20.279Z,85.07
2022-11-29T02:31:51.557Z,84.85
2022-11-29T02:37:11.757Z,85.03
2022-11-29T02:43:01.089Z,84.71
2022-11-29T02:48:26.221Z,84.80
2022-11-29T02:53:41.671Z,84.60
2022-11-29T02:58:54.886Z,85.14
2022-11-29T03:04:07.044Z,84.70
2022-11-29T03:09:38.701Z,85.14
2022-11-29T03:14:58.062Z,85.23
2022-11-29T03:20:06.874Z,85.23
2022-11-29T03:25:21.449Z,85.14
2022-11-29T03:30:25.077Z,84.70
2022-11-29T03:35:43.965Z,85.32
2022-11-29T03:41:20.442Z,85.13
2022-11-29T03:46:47.367Z,84.97
2022-11-29T03:52:08.854Z,84.50
2022-11-29T03:57:18.216Z,84.80
2022-11-29T04:02:51.225Z,84.82
2022-11-29T04:08:39.351Z,84.93
2022-11-29T04:14:13.515Z,84.86
2022-11-29T04:19:35.393Z,84.91
2022-11-29T04:24:54.758Z,84.61
2022-11-29T04:30:23.621Z,84.81
2022-11-29T04:35:42.839Z,85.12
2022-11-29T04:41:20.196Z,84.71
2022-11-29T04:46:36.291Z,85.18
2022-11-29T04:52:06.348Z,84.96
2022-11-29T04:57:21.682Z,85.24
2022-11-29T05:02:33.193Z,85.17
2022-11-29T05:07:46.077Z,84.98
2022-11-29T05:13:11.287Z,85.13
2022-11-29T05:18:23.895Z,85.32
2022-11-29T05:23:40.373Z,85.45
2022-11-29T05:29:03.681Z,85.63
2022-11-29T05:34:16.585Z,85.59
2022-11-29T05:40:03.709Z,85.67
2022-11-29T05:45:37.633Z,85.66
2022-11-29T05:50:48.256Z,85.38
2022-11-29T05:56:33.571Z,85.38
2022-11-29T06:02:06.706Z,85.57
2022-11-29T06:07:24.061Z,85.13
2022-11-29T06:12:31.207Z,85.26
2022-11-29T06:18:06.792Z,85.33
2022-11-29T06:23:35.728Z,85.03
2022-11-29T06:29:13.619Z,84.85
2022-11-29T06:34:38.848Z,85.40
2022-11-29T06:39:42.605Z,85.45
2022-11-29T06:44:47.226Z,85.49
2022-11-29T06:49:58.803Z,85.59
2022-11-29T06:55:40.339Z,85.48
2022-11-29T07:00:46.656Z,85.01
2022-11-29T07:05:50.580Z,85.41
2022-11-29T07:10:55.992Z,85.32
2022-11-29T07:16:22.583Z,85.26
2022-11-29T07:21:51.288Z,85.49
2022-11-29T07:27:08.674Z,85.42
2022-11-29T07:32:28.572Z,85.35
2022-11-29T07:37:35.223Z,85.25
2022-11-29T07:43:06.506Z,85.53
2022-11-29T07:48:12.687Z,85.26
2022-11-29T07:53:18.654Z,85.25
2022-11-29T07:58:22.116Z,85.60
2022-11-29T08:03:25.543Z,85.29
2022-11-29T08:08:28.887Z,85.31
2022-11-29T08:13:32.922Z,85.61
2022-11-29T08:18:37.136Z,85.65
2022-11-29T08:23:40.467Z,85.47
2022-11-29T08:28:44.184Z,85.20
2022-11-29T08:33:48.325Z,85.18
2022-11-29T08:38:59.276Z,85.14
2022-11-29T08:44:07.704Z,85.16
2022-11-29T08:49:11.191Z,84.90
2022-11-29T08:54:14.687Z,84.84
2022-11-29T08:59:18.102Z,84.70
2022-11-29T09:04:21.896Z,84.42
2022-11-29T09:09:25.400Z,84.90
2022-11-29T09:14:29.230Z,84.68
2022-11-29T09:19:33.161Z,85.11
2022-11-29T09:24:36.245Z,85.04
2022-11-29T09:29:39.636Z,84.22
2022-11-29T09:34:43.536Z,84.47
2022-11-29T09:39:47.194Z,84.05
2022-11-29T09:45:32.125Z,84.43
2022-11-29T09:50:46.284Z,84.33
2022-11-29T09:56:10.028Z,84.22
2022-11-29T10:01:21.195Z,84.41
2022-11-29T10:06:28.362Z,84.57
2022-11-29T10:12:02.415Z,84.62
2022-11-29T10:17:30.223Z,84.10
2022-11-29T10:22:55.684Z,84.32
2022-11-29T10:27:59.447Z,84.32
2022-11-29T10:33:03.067Z,84.48
2022-11-29T10:38:29.736Z,84.39
2022-11-29T10:43:30.721Z,83.55
2022-11-29T10:48:34.929Z,84.12
2022-11-29T10:53:38.382Z,83.50
2022-11-29T10:59:19.024Z,83.70
2022-11-29T11:04:35.817Z,83.14
2022-11-29T11:09:49.542Z,83.46
2022-11-29T11:15:28.562Z,83.13
2022-11-29T11:20:34.903Z,83.24
2022-11-29T11:25:40.667Z,83.06
2022-11-29T11:31:01.721Z,82.87
2022-11-29T11:36:13.671Z,83.02
2022-11-29T11:41:46.139Z,82.54
2022-11-29T11:46:51.103Z,82.63
2022-11-29T11:51:54.738Z,82.76
2022-11-29T11:56:58.657Z,82.72
2022-11-29T12:02:02.372Z,82.55
2022-11-29T12:07:33.776Z,82.35
2022-11-29T12:12:46.000Z,81.89
2022-11-29T12:18:05.156Z,81.65
2022-11-29T12:23:16.367Z,82.43
2022-11-29T12:28:21.678Z,81.70
2022-11-29T12:33:41.889Z,81.66
2022-11-29T12:39:05.675Z,81.69
2022-11-29T12:44:42.604Z,81.49
2022-11-29T12:50:18.723Z,81.89
2022-11-29T12:55:32.030Z,81.80
2022-11-29T13:01:05.357Z,81.30
2022-11-29T13:06:56.848Z,81.24
2022-11-29T13:12:45.716Z,81.64
2022-11-29T13:18:04.838Z,81.38
2022-11-29T13:23:45.880Z,81.82
2022-11-29T13:28:51.177Z,81.75
2022-11-29T13:34:01.063Z,82.13
2022-11-29T13:39:33.074Z,82.06
2022-11-29T13:45:12.151Z,81.94
2022-11-29T13:50:42.979Z,81.63
2022-11-29T13:56:01.358Z,81.86
2022-11-29T14:01:13.377Z,81.84
2022-11-29T14:06:24.009Z,81.72
2022-11-29T14:11:43.430Z,81.70
2022-11-29T14:17:35.986Z,81.59
2022-11-29T14:23:20.322Z,81.90
2022-11-29T14:28:23.861Z,81.89
2022-11-29T14:33:45.907Z,82.09
2022-11-29T14:39:13.791Z,82.16
2022-11-29T14:44:17.321Z,82.02
2022-11-29T14:49:25.064Z,81.89
2022-11-29T14:54:28.910Z,81.73
2022-11-29T14:59:54.050Z,82.02
2022-11-29T15:04:58.273Z,81.93
2022-11-29T15:10:05.482Z,81.89
2022-11-29T15:15:27.346Z,81.74
2022-11-29T15:20:49.714Z,81.96
2022-11-29T15:25:55.348Z,81.84
2022-11-29T15:31:11.520Z,82.05
2022-11-29T15:36:24.555Z,82.35
2022-11-29T15:41:31.528Z,82.22
2022-11-29T15:46:35.955Z,82.40
2022-11-29T15:51:40.111Z,82.46
2022-11-29T15:56:54.114Z,82.36
2022-11-29T16:02:02.857Z,82.24
2022-11-29T16:07:06.608Z,82.11
2022-11-29T16:12:14.335Z,81.82
2022-11-29T16:17:21.859Z,82.31
2022-11-29T16:22:29.043Z,82.46
2022-11-29T16:27:36.832Z,82.34
2022-11-29T16:32:44.060Z,82.06
2022-11-29T16:37:48.152Z,82.28
2022-11-29T16:43:04.346Z,82.24
2022-11-29T16:48:32.325Z,82.00
2022-11-29T16:53:39.342Z,82.19
2022-11-29T16:59:20.531Z,82.49
2022-11-29T17:04:10.259Z,82.30
2022-11-29T17:09:24.614Z,82.44
2022-11-29T17:14:32.187Z,82.16
2022-11-29T17:19:35.845Z,82.13
2022-11-29T17:24:46.198Z,82.41
2022-11-29T17:29:51.556Z,82.36
2022-11-29T17:34:55.469Z,82.37
2022-11-29T17:39:58.901Z,82.39
2022-11-29T17:45:02.095Z,82.24
2022-11-29T17:50:06.120Z,82.35
2022-11-29T17:55:12.799Z,82.29
2022-11-29T18:00:17.835Z,82.35
2022-11-29T18:05:21.593Z,82.59
2022-11-29T18:10:28.070Z,82.25
2022-11-29T18:15:32.962Z,82.25
2022-11-29T18:20:36.575Z,82.70
2022-11-29T18:25:40.238Z,82.45
2022-11-29T18:30:44.290Z,82.59
2022-11-29T18:35:47.954Z,82.34
2022-11-29T18:40:51.815Z,82.55
2022-11-29T18:45:55.288Z,82.45
2022-11-29T18:51:02.694Z,82.73
2022-11-29T18:56:16.009Z,82.78
2022-11-29T19:01:24.305Z,83.07
2022-11-29T19:06:39.248Z,83.01
2022-11-29T19:11:44.090Z,83.00
2022-11-29T19:16:49.237Z,82.85
2022-11-29T19:21:52.597Z,82.77
2022-11-29T19:26:56.757Z,82.62
2022-11-29T19:32:01.186Z,82.88
2022-11-29T19:37:05.262Z,82.88
2022-11-29T19:42:09.632Z,82.79
2022-11-29T19:47:12.950Z,83.09
2022-11-29T19:52:16.700Z,82.90
2022-11-29T19:57:20.382Z,83.08
2022-11-29T20:02:24.584Z,83.12
2022-11-29T20:07:28.530Z,83.43
2022-11-29T20:12:34.728Z,83.75
2022-11-29T20:17:39.822Z,83.38
2022-11-29T20:22:45.677Z,83.24
2022-11-29T20:27:49.149Z,83.08
2022-11-29T20:32:53.255Z,83.26
2022-11-29T20:38:34.491Z,83.33
2022-11-29T20:43:55.828Z,83.49
2022-11-29T20:49:06.046Z,83.68
2022-11-29T20:54:12.433Z,83.44
2022-11-29T20:59:16.316Z,83.80
2022-11-29T21:04:23.597Z,83.98
2022-11-29T21:09:28.572Z,83.33
2022-11-29T21:14:32.537Z,83.72
2022-11-29T21:19:36.517Z,84.00
2022-11-29T21:25:14.576Z,83.95
2022-11-29T21:30:21.571Z,83.91
2022-11-29T21:35:25.375Z,84.23
2022-11-29T21:40:28.819Z,84.42
2022-11-29T21:45:32.419Z,84.73
2022-11-29T21:50:36.303Z,84.40
2022-11-29T21:55:39.775Z,84.09
2022-11-29T22:00:44.328Z,83.38
2022-11-29T22:05:48.316Z,82.84
2022-11-29T22:16:19.784Z,83.79
2022-11-29T22:21:23.653Z,84.11
2022-11-29T22:26:29.097Z,83.89
2022-11-29T22:31:33.247Z,84.59
2022-11-29T22:36:38.210Z,84.60
2022-11-29T22:41:42.047Z,83.61
2022-11-29T22:46:46.112Z,83.87
2022-11-29T22:51:51.646Z,84.05
2022-11-29T22:56:55.135Z,84.32
2022-11-29T23:01:58.618Z,84.64
2022-11-29T23:07:02.118Z,84.37
2022-11-29T23:12:06.228Z,84.60
2022-11-29T23:17:09.810Z,84.19
2022-11-29T23:22:13.331Z,83.87
2022-11-29T23:27:16.899Z,84.17
2022-11-29T23:32:20.566Z,84.49
2022-11-29T23:37:24.391Z,84.18
2022-11-29T23:42:27.912Z,84.48
2022-11-29T23:47:31.401Z,84.66
2022-11-29T23:52:34.865Z,84.50
2022-11-29T23:57:38.640Z,84.65
